sensor_id;sensor_type;location;lat;lon;timestamp;P1;durP1;ratioP1;P2;durP2;ratioP2
18875;SDS011;9570;50.854;13.778;2022-07-10T00:02:36;3.70;;;1.30;;
18875;SDS011;9570;50.854;13.778;2022-07-10T00:05:03;4.47;;;1.30;;
18875;SDS011;9570;50.854;13.778;2022-07-10T00:07:29;3.57;;;1.50;;
18875;SDS011;9570;50.854;13.778;2022-07-10T00:09:54;2.60;;;1.20;;
18875;SDS011;9570;50.854;13.778;2022-07-10T00:12:20;4.33;;;1.30;;
18875;SDS011;9570;50.854;13.778;2022-07-10T00:14:45;2.47;;;1.10;;
18875;SDS011;9570;50.854;13.778;2022-07-10T00:17:11;3.13;;;1.30;;
18875;SDS011;9570;50.854;13.778;2022-07-10T00:19:36;2.80;;;1.23;;
18875;SDS011;9570;50.854;13.778;2022-07-10T00:22:02;2.80;;;1.30;;
18875;SDS011;9570;50.854;13.778;2022-07-10T00:24:28;4.27;;;1.40;;
18875;SDS011;9570;50.854;13.778;2022-07-10T00:26:53;4.70;;;1.27;;
18875;SDS011;9570;50.854;13.778;2022-07-10T00:29:18;2.50;;;1.27;;
18875;SDS011;9570;50.854;13.778;2022-07-10T00:31:44;7.97;;;1.43;;
18875;SDS011;9570;50.854;13.778;2022-07-10T00:34:09;2.90;;;1.30;;
18875;SDS011;9570;50.854;13.778;2022-07-10T00:36:36;4.40;;;1.30;;
18875;SDS011;9570;50.854;13.778;2022-07-10T00:39:02;3.97;;;1.30;;
18875;SDS011;9570;50.854;13.778;2022-07-10T00:41:28;7.63;;;1.50;;
18875;SDS011;9570;50.854;13.778;2022-07-10T00:43:57;5.47;;;1.23;;
18875;SDS011;9570;50.854;13.778;2022-07-10T00:46:25;4.23;;;1.10;;
18875;SDS011;9570;50.854;13.778;2022-07-10T00:48:52;5.07;;;1.20;;
18875;SDS011;9570;50.854;13.778;2022-07-10T00:51:19;4.00;;;1.30;;
18875;SDS011;9570;50.854;13.778;2022-07-10T00:53:46;3.77;;;1.30;;
18875;SDS011;9570;50.854;13.778;2022-07-10T00:56:17;2.27;;;1.23;;
18875;SDS011;9570;50.854;13.778;2022-07-10T00:58:48;3.17;;;1.00;;
18875;SDS011;9570;50.854;13.778;2022-07-10T01:01:14;3.63;;;1.10;;
18875;SDS011;9570;50.854;13.778;2022-07-10T01:03:40;4.13;;;1.13;;
18875;SDS011;9570;50.854;13.778;2022-07-10T01:06:05;3.73;;;1.20;;
18875;SDS011;9570;50.854;13.778;2022-07-10T01:08:31;3.30;;;1.30;;
18875;SDS011;9570;50.854;13.778;2022-07-10T01:10:58;4.13;;;1.30;;
18875;SDS011;9570;50.854;13.778;2022-07-10T01:13:24;3.33;;;1.07;;
18875;SDS011;9570;50.854;13.778;2022-07-10T01:15:49;3.57;;;1.20;;
18875;SDS011;9570;50.854;13.778;2022-07-10T01:18:16;3.83;;;1.17;;
18875;SDS011;9570;50.854;13.778;2022-07-10T01:20:41;3.03;;;1.07;;
18875;SDS011;9570;50.854;13.778;2022-07-10T01:23:07;6.47;;;1.20;;
18875;SDS011;9570;50.854;13.778;2022-07-10T01:25:32;3.30;;;1.20;;
18875;SDS011;9570;50.854;13.778;2022-07-10T01:27:58;4.30;;;1.10;;
18875;SDS011;9570;50.854;13.778;2022-07-10T01:30:23;4.27;;;1.70;;
18875;SDS011;9570;50.854;13.778;2022-07-10T01:32:50;3.00;;;1.27;;
18875;SDS011;9570;50.854;13.778;2022-07-10T01:35:17;3.93;;;1.10;;
18875;SDS011;9570;50.854;13.778;2022-07-10T01:37:42;4.37;;;1.30;;
18875;SDS011;9570;50.854;13.778;2022-07-10T01:40:08;8.87;;;1.30;;
18875;SDS011;9570;50.854;13.778;2022-07-10T01:42:34;6.17;;;1.17;;
18875;SDS011;9570;50.854;13.778;2022-07-10T01:44:59;4.53;;;1.37;;
18875;SDS011;9570;50.854;13.778;2022-07-10T01:47:25;5.30;;;1.30;;
18875;SDS011;9570;50.854;13.778;2022-07-10T01:49:52;3.43;;;1.27;;
18875;SDS011;9570;50.854;13.778;2022-07-10T01:52:18;3.97;;;1.20;;
18875;SDS011;9570;50.854;13.778;2022-07-10T01:54:44;5.67;;;1.20;;
18875;SDS011;9570;50.854;13.778;2022-07-10T01:57:10;7.23;;;1.50;;
18875;SDS011;9570;50.854;13.778;2022-07-10T01:59:36;4.03;;;0.90;;
18875;SDS011;9570;50.854;13.778;2022-07-10T02:02:01;4.40;;;1.23;;
18875;SDS011;9570;50.854;13.778;2022-07-10T02:04:27;2.30;;;1.10;;
18875;SDS011;9570;50.854;13.778;2022-07-10T02:07:11;3.73;;;1.30;;
18875;SDS011;9570;50.854;13.778;2022-07-10T02:09:44;3.93;;;1.03;;
18875;SDS011;9570;50.854;13.778;2022-07-10T02:12:11;3.87;;;1.10;;
18875;SDS011;9570;50.854;13.778;2022-07-10T02:14:38;3.13;;;1.03;;
18875;SDS011;9570;50.854;13.778;2022-07-10T02:17:04;5.27;;;1.50;;
18875;SDS011;9570;50.854;13.778;2022-07-10T02:19:31;3.47;;;0.93;;
18875;SDS011;9570;50.854;13.778;2022-07-10T02:21:57;6.83;;;1.40;;
18875;SDS011;9570;50.854;13.778;2022-07-10T02:24:23;5.43;;;1.00;;
18875;SDS011;9570;50.854;13.778;2022-07-10T02:26:48;6.57;;;1.50;;
18875;SDS011;9570;50.854;13.778;2022-07-10T02:29:14;5.50;;;1.00;;
18875;SDS011;9570;50.854;13.778;2022-07-10T02:31:40;4.63;;;1.30;;
18875;SDS011;9570;50.854;13.778;2022-07-10T02:34:08;4.53;;;1.20;;
18875;SDS011;9570;50.854;13.778;2022-07-10T02:36:38;4.80;;;1.23;;
18875;SDS011;9570;50.854;13.778;2022-07-10T02:39:04;5.23;;;1.20;;
18875;SDS011;9570;50.854;13.778;2022-07-10T02:41:30;4.60;;;1.20;;
18875;SDS011;9570;50.854;13.778;2022-07-10T02:43:56;5.10;;;1.20;;
18875;SDS011;9570;50.854;13.778;2022-07-10T02:46:22;8.23;;;1.27;;
18875;SDS011;9570;50.854;13.778;2022-07-10T02:48:47;3.63;;;1.30;;
18875;SDS011;9570;50.854;13.778;2022-07-10T02:51:13;3.90;;;1.23;;
18875;SDS011;9570;50.854;13.778;2022-07-10T02:53:39;4.90;;;1.60;;
18875;SDS011;9570;50.854;13.778;2022-07-10T02:56:04;4.23;;;1.30;;
18875;SDS011;9570;50.854;13.778;2022-07-10T02:58:30;4.17;;;1.27;;
18875;SDS011;9570;50.854;13.778;2022-07-10T03:00:56;6.30;;;1.30;;
18875;SDS011;9570;50.854;13.778;2022-07-10T03:03:22;4.63;;;1.30;;
18875;SDS011;9570;50.854;13.778;2022-07-10T03:05:47;2.50;;;1.20;;
18875;SDS011;9570;50.854;13.778;2022-07-10T03:08:13;3.50;;;1.13;;
18875;SDS011;9570;50.854;13.778;2022-07-10T03:10:38;5.13;;;1.23;;
18875;SDS011;9570;50.854;13.778;2022-07-10T03:13:04;4.93;;;1.20;;
18875;SDS011;9570;50.854;13.778;2022-07-10T03:15:29;5.20;;;1.30;;
18875;SDS011;9570;50.854;13.778;2022-07-10T03:17:55;3.33;;;1.20;;
18875;SDS011;9570;50.854;13.778;2022-07-10T03:20:20;1.87;;;1.03;;
18875;SDS011;9570;50.854;13.778;2022-07-10T03:22:46;2.67;;;1.07;;
18875;SDS011;9570;50.854;13.778;2022-07-10T03:25:11;4.67;;;1.27;;
18875;SDS011;9570;50.854;13.778;2022-07-10T03:27:38;2.47;;;1.17;;
18875;SDS011;9570;50.854;13.778;2022-07-10T03:30:04;5.83;;;1.33;;
18875;SDS011;9570;50.854;13.778;2022-07-10T03:32:30;5.70;;;1.63;;
18875;SDS011;9570;50.854;13.778;2022-07-10T03:34:55;8.30;;;1.47;;
18875;SDS011;9570;50.854;13.778;2022-07-10T03:37:21;3.37;;;1.20;;
18875;SDS011;9570;50.854;13.778;2022-07-10T03:39:46;3.73;;;1.20;;
18875;SDS011;9570;50.854;13.778;2022-07-10T03:42:12;7.43;;;1.10;;
18875;SDS011;9570;50.854;13.778;2022-07-10T03:44:37;2.53;;;1.20;;
18875;SDS011;9570;50.854;13.778;2022-07-10T03:47:03;4.47;;;1.20;;
18875;SDS011;9570;50.854;13.778;2022-07-10T03:49:28;4.07;;;1.40;;
18875;SDS011;9570;50.854;13.778;2022-07-10T03:51:54;5.07;;;1.30;;
18875;SDS011;9570;50.854;13.778;2022-07-10T03:54:24;3.47;;;1.40;;
18875;SDS011;9570;50.854;13.778;2022-07-10T03:56:49;3.37;;;1.20;;
18875;SDS011;9570;50.854;13.778;2022-07-10T03:59:33;3.40;;;1.30;;
18875;SDS011;9570;50.854;13.778;2022-07-10T04:01:59;6.23;;;1.33;;
18875;SDS011;9570;50.854;13.778;2022-07-10T04:04:24;6.23;;;1.30;;
18875;SDS011;9570;50.854;13.778;2022-07-10T04:06:50;6.80;;;1.30;;
18875;SDS011;9570;50.854;13.778;2022-07-10T04:09:15;3.63;;;1.10;;
18875;SDS011;9570;50.854;13.778;2022-07-10T04:11:41;4.07;;;1.10;;
18875;SDS011;9570;50.854;13.778;2022-07-10T04:14:06;5.37;;;1.30;;
18875;SDS011;9570;50.854;13.778;2022-07-10T04:16:32;3.27;;;1.40;;
18875;SDS011;9570;50.854;13.778;2022-07-10T04:18:57;3.90;;;1.27;;
18875;SDS011;9570;50.854;13.778;2022-07-10T04:21:23;4.60;;;1.40;;
18875;SDS011;9570;50.854;13.778;2022-07-10T04:23:48;4.60;;;1.30;;
18875;SDS011;9570;50.854;13.778;2022-07-10T04:26:14;3.80;;;1.20;;
18875;SDS011;9570;50.854;13.778;2022-07-10T04:28:39;4.10;;;0.97;;
18875;SDS011;9570;50.854;13.778;2022-07-10T04:31:05;3.97;;;1.10;;
18875;SDS011;9570;50.854;13.778;2022-07-10T04:33:31;6.00;;;1.40;;
18875;SDS011;9570;50.854;13.778;2022-07-10T04:35:56;4.50;;;1.10;;
18875;SDS011;9570;50.854;13.778;2022-07-10T04:38:22;4.77;;;1.20;;
18875;SDS011;9570;50.854;13.778;2022-07-10T04:40:47;4.77;;;1.23;;
18875;SDS011;9570;50.854;13.778;2022-07-10T04:43:12;7.57;;;1.10;;
18875;SDS011;9570;50.854;13.778;2022-07-10T04:45:38;6.23;;;1.77;;
18875;SDS011;9570;50.854;13.778;2022-07-10T04:48:04;5.93;;;1.00;;
18875;SDS011;9570;50.854;13.778;2022-07-10T04:50:30;4.23;;;1.00;;
18875;SDS011;9570;50.854;13.778;2022-07-10T04:52:55;3.40;;;1.17;;
18875;SDS011;9570;50.854;13.778;2022-07-10T04:55:21;4.70;;;1.53;;
18875;SDS011;9570;50.854;13.778;2022-07-10T04:57:47;4.47;;;1.53;;
18875;SDS011;9570;50.854;13.778;2022-07-10T05:00:13;3.30;;;1.33;;
18875;SDS011;9570;50.854;13.778;2022-07-10T05:02:39;3.03;;;1.23;;
18875;SDS011;9570;50.854;13.778;2022-07-10T05:05:04;5.93;;;1.23;;
18875;SDS011;9570;50.854;13.778;2022-07-10T05:07:30;2.67;;;0.90;;
18875;SDS011;9570;50.854;13.778;2022-07-10T05:09:55;5.63;;;1.50;;
18875;SDS011;9570;50.854;13.778;2022-07-10T05:12:21;5.83;;;1.00;;
18875;SDS011;9570;50.854;13.778;2022-07-10T05:14:46;7.67;;;1.43;;
18875;SDS011;9570;50.854;13.778;2022-07-10T05:17:12;4.90;;;1.10;;
18875;SDS011;9570;50.854;13.778;2022-07-10T05:19:37;4.20;;;1.30;;
18875;SDS011;9570;50.854;13.778;2022-07-10T05:22:03;5.63;;;1.03;;
18875;SDS011;9570;50.854;13.778;2022-07-10T05:24:29;3.77;;;1.13;;
18875;SDS011;9570;50.854;13.778;2022-07-10T05:26:54;2.87;;;1.33;;
18875;SDS011;9570;50.854;13.778;2022-07-10T05:29:20;2.20;;;1.00;;
18875;SDS011;9570;50.854;13.778;2022-07-10T05:31:45;3.67;;;1.17;;
18875;SDS011;9570;50.854;13.778;2022-07-10T05:34:10;7.10;;;1.00;;
18875;SDS011;9570;50.854;13.778;2022-07-10T05:36:36;4.40;;;1.73;;
18875;SDS011;9570;50.854;13.778;2022-07-10T05:39:01;3.10;;;1.10;;
18875;SDS011;9570;50.854;13.778;2022-07-10T05:41:27;4.23;;;1.27;;
18875;SDS011;9570;50.854;13.778;2022-07-10T05:43:53;3.27;;;1.27;;
18875;SDS011;9570;50.854;13.778;2022-07-10T05:46:18;4.27;;;1.20;;
18875;SDS011;9570;50.854;13.778;2022-07-10T05:48:44;3.13;;;1.10;;
18875;SDS011;9570;50.854;13.778;2022-07-10T05:51:09;4.57;;;1.27;;
18875;SDS011;9570;50.854;13.778;2022-07-10T05:53:35;6.43;;;1.30;;
18875;SDS011;9570;50.854;13.778;2022-07-10T05:56:01;4.43;;;1.23;;
18875;SDS011;9570;50.854;13.778;2022-07-10T05:58:27;4.27;;;1.53;;
18875;SDS011;9570;50.854;13.778;2022-07-10T06:00:52;3.47;;;1.13;;
18875;SDS011;9570;50.854;13.778;2022-07-10T06:03:18;7.10;;;1.33;;
18875;SDS011;9570;50.854;13.778;2022-07-10T06:05:43;4.97;;;1.33;;
18875;SDS011;9570;50.854;13.778;2022-07-10T06:08:10;4.70;;;1.20;;
18875;SDS011;9570;50.854;13.778;2022-07-10T06:10:36;8.00;;;1.80;;
18875;SDS011;9570;50.854;13.778;2022-07-10T06:13:02;6.13;;;1.30;;
18875;SDS011;9570;50.854;13.778;2022-07-10T06:15:27;2.87;;;1.23;;
18875;SDS011;9570;50.854;13.778;2022-07-10T06:17:55;3.53;;;1.40;;
18875;SDS011;9570;50.854;13.778;2022-07-10T06:20:22;4.60;;;1.43;;
18875;SDS011;9570;50.854;13.778;2022-07-10T06:22:47;6.00;;;1.50;;
18875;SDS011;9570;50.854;13.778;2022-07-10T06:25:12;4.93;;;1.50;;
18875;SDS011;9570;50.854;13.778;2022-07-10T06:27:38;3.80;;;1.47;;
18875;SDS011;9570;50.854;13.778;2022-07-10T06:30:04;4.73;;;1.77;;
18875;SDS011;9570;50.854;13.778;2022-07-10T06:32:30;4.40;;;1.50;;
18875;SDS011;9570;50.854;13.778;2022-07-10T06:34:56;3.33;;;1.20;;
18875;SDS011;9570;50.854;13.778;2022-07-10T06:37:21;2.53;;;1.30;;
18875;SDS011;9570;50.854;13.778;2022-07-10T06:39:47;3.20;;;1.47;;
18875;SDS011;9570;50.854;13.778;2022-07-10T06:42:13;3.20;;;1.30;;
18875;SDS011;9570;50.854;13.778;2022-07-10T06:44:39;4.17;;;1.50;;
18875;SDS011;9570;50.854;13.778;2022-07-10T06:47:08;2.50;;;1.10;;
18875;SDS011;9570;50.854;13.778;2022-07-10T06:49:53;2.67;;;1.20;;
18875;SDS011;9570;50.854;13.778;2022-07-10T06:52:19;2.63;;;1.00;;
18875;SDS011;9570;50.854;13.778;2022-07-10T06:54:45;2.33;;;1.17;;
18875;SDS011;9570;50.854;13.778;2022-07-10T06:57:11;3.40;;;1.00;;
18875;SDS011;9570;50.854;13.778;2022-07-10T06:59:37;1.43;;;0.80;;
18875;SDS011;9570;50.854;13.778;2022-07-10T07:02:04;3.17;;;1.20;;
18875;SDS011;9570;50.854;13.778;2022-07-10T07:04:29;5.67;;;1.40;;
18875;SDS011;9570;50.854;13.778;2022-07-10T07:06:55;2.87;;;1.17;;
18875;SDS011;9570;50.854;13.778;2022-07-10T07:09:20;4.97;;;1.30;;
18875;SDS011;9570;50.854;13.778;2022-07-10T07:11:46;3.50;;;1.10;;
18875;SDS011;9570;50.854;13.778;2022-07-10T07:14:12;2.37;;;1.17;;
18875;SDS011;9570;50.854;13.778;2022-07-10T07:16:38;1.90;;;0.80;;
18875;SDS011;9570;50.854;13.778;2022-07-10T07:19:06;2.13;;;0.70;;
18875;SDS011;9570;50.854;13.778;2022-07-10T07:21:32;1.10;;;0.87;;
18875;SDS011;9570;50.854;13.778;2022-07-10T07:24:16;2.73;;;0.90;;
18875;SDS011;9570;50.854;13.778;2022-07-10T07:26:45;1.47;;;0.80;;
18875;SDS011;9570;50.854;13.778;2022-07-10T07:29:15;2.00;;;0.60;;
18875;SDS011;9570;50.854;13.778;2022-07-10T07:31:41;3.80;;;0.80;;
18875;SDS011;9570;50.854;13.778;2022-07-10T07:34:07;3.67;;;0.90;;
18875;SDS011;9570;50.854;13.778;2022-07-10T07:36:33;1.93;;;0.70;;
18875;SDS011;9570;50.854;13.778;2022-07-10T07:38:58;2.10;;;0.90;;
18875;SDS011;9570;50.854;13.778;2022-07-10T07:41:24;1.30;;;0.60;;
18875;SDS011;9570;50.854;13.778;2022-07-10T07:43:50;2.07;;;0.60;;
18875;SDS011;9570;50.854;13.778;2022-07-10T07:46:15;1.13;;;0.60;;
18875;SDS011;9570;50.854;13.778;2022-07-10T07:48:41;0.80;;;0.70;;
18875;SDS011;9570;50.854;13.778;2022-07-10T07:51:07;1.47;;;0.50;;
18875;SDS011;9570;50.854;13.778;2022-07-10T07:53:32;1.50;;;0.60;;
18875;SDS011;9570;50.854;13.778;2022-07-10T07:55:58;2.03;;;0.70;;
18875;SDS011;9570;50.854;13.778;2022-07-10T07:58:24;1.20;;;0.63;;
18875;SDS011;9570;50.854;13.778;2022-07-10T08:00:49;1.43;;;0.60;;
18875;SDS011;9570;50.854;13.778;2022-07-10T08:03:15;1.50;;;0.70;;
18875;SDS011;9570;50.854;13.778;2022-07-10T08:05:41;0.93;;;0.80;;
18875;SDS011;9570;50.854;13.778;2022-07-10T08:08:07;3.27;;;1.27;;
18875;SDS011;9570;50.854;13.778;2022-07-10T08:10:33;2.63;;;0.70;;
18875;SDS011;9570;50.854;13.778;2022-07-10T08:12:59;1.70;;;0.70;;
18875;SDS011;9570;50.854;13.778;2022-07-10T08:15:25;0.93;;;0.40;;
18875;SDS011;9570;50.854;13.778;2022-07-10T08:17:51;1.23;;;0.67;;
18875;SDS011;9570;50.854;13.778;2022-07-10T08:20:18;0.73;;;0.53;;
18875;SDS011;9570;50.854;13.778;2022-07-10T08:22:44;1.47;;;0.60;;
18875;SDS011;9570;50.854;13.778;2022-07-10T08:25:10;2.30;;;0.80;;
18875;SDS011;9570;50.854;13.778;2022-07-10T08:27:36;2.07;;;0.67;;
18875;SDS011;9570;50.854;13.778;2022-07-10T08:30:02;0.83;;;0.60;;
18875;SDS011;9570;50.854;13.778;2022-07-10T08:32:28;2.33;;;0.77;;
18875;SDS011;9570;50.854;13.778;2022-07-10T08:34:54;1.90;;;0.60;;
18875;SDS011;9570;50.854;13.778;2022-07-10T08:37:20;1.40;;;0.50;;
18875;SDS011;9570;50.854;13.778;2022-07-10T08:39:46;3.27;;;0.87;;
18875;SDS011;9570;50.854;13.778;2022-07-10T08:42:12;2.43;;;0.77;;
18875;SDS011;9570;50.854;13.778;2022-07-10T08:44:40;3.03;;;1.00;;
18875;SDS011;9570;50.854;13.778;2022-07-10T08:47:05;1.80;;;0.90;;
18875;SDS011;9570;50.854;13.778;2022-07-10T08:49:31;2.43;;;1.00;;
18875;SDS011;9570;50.854;13.778;2022-07-10T08:52:02;1.97;;;0.87;;
18875;SDS011;9570;50.854;13.778;2022-07-10T08:54:29;3.00;;;1.00;;
18875;SDS011;9570;50.854;13.778;2022-07-10T08:56:56;2.07;;;0.87;;
18875;SDS011;9570;50.854;13.778;2022-07-10T08:59:23;1.53;;;0.90;;
18875;SDS011;9570;50.854;13.778;2022-07-10T09:01:49;1.23;;;0.80;;
18875;SDS011;9570;50.854;13.778;2022-07-10T09:04:18;1.50;;;0.90;;
18875;SDS011;9570;50.854;13.778;2022-07-10T09:06:44;1.80;;;0.90;;
18875;SDS011;9570;50.854;13.778;2022-07-10T09:09:10;1.90;;;0.80;;
18875;SDS011;9570;50.854;13.778;2022-07-10T09:11:37;1.93;;;1.03;;
18875;SDS011;9570;50.854;13.778;2022-07-10T09:14:05;5.27;;;1.07;;
18875;SDS011;9570;50.854;13.778;2022-07-10T09:16:37;3.60;;;1.10;;
18875;SDS011;9570;50.854;13.778;2022-07-10T09:21:53;2.53;;;0.80;;
18875;SDS011;9570;50.854;13.778;2022-07-10T09:24:20;2.23;;;0.97;;
18875;SDS011;9570;50.854;13.778;2022-07-10T09:26:57;4.13;;;1.40;;
18875;SDS011;9570;50.854;13.778;2022-07-10T09:29:28;2.43;;;1.10;;
18875;SDS011;9570;50.854;13.778;2022-07-10T09:31:55;4.23;;;1.37;;
18875;SDS011;9570;50.854;13.778;2022-07-10T09:34:41;3.53;;;1.20;;
18875;SDS011;9570;50.854;13.778;2022-07-10T09:40:02;4.40;;;1.30;;
18875;SDS011;9570;50.854;13.778;2022-07-10T09:42:33;5.47;;;1.40;;
18875;SDS011;9570;50.854;13.778;2022-07-10T09:47:40;3.03;;;1.00;;
18875;SDS011;9570;50.854;13.778;2022-07-10T09:50:20;4.70;;;0.90;;
18875;SDS011;9570;50.854;13.778;2022-07-10T09:52:50;5.17;;;1.27;;
18875;SDS011;9570;50.854;13.778;2022-07-10T09:55:22;5.70;;;1.00;;
18875;SDS011;9570;50.854;13.778;2022-07-10T09:57:53;2.43;;;0.90;;
18875;SDS011;9570;50.854;13.778;2022-07-10T10:00:25;3.00;;;1.00;;
18875;SDS011;9570;50.854;13.778;2022-07-10T10:02:56;4.57;;;1.10;;
18875;SDS011;9570;50.854;13.778;2022-07-10T10:08:04;4.30;;;1.10;;
18875;SDS011;9570;50.854;13.778;2022-07-10T10:10:43;2.27;;;0.90;;
18875;SDS011;9570;50.854;13.778;2022-07-10T10:13:12;3.80;;;1.27;;
18875;SDS011;9570;50.854;13.778;2022-07-10T10:15:42;3.20;;;1.33;;
18875;SDS011;9570;50.854;13.778;2022-07-10T10:18:08;3.77;;;1.07;;
18875;SDS011;9570;50.854;13.778;2022-07-10T10:20:35;5.33;;;1.13;;
18875;SDS011;9570;50.854;13.778;2022-07-10T10:23:02;3.70;;;1.07;;
18875;SDS011;9570;50.854;13.778;2022-07-10T10:25:29;4.00;;;1.27;;
18875;SDS011;9570;50.854;13.778;2022-07-10T10:27:58;3.40;;;1.13;;
18875;SDS011;9570;50.854;13.778;2022-07-10T10:30:26;3.70;;;1.20;;
18875;SDS011;9570;50.854;13.778;2022-07-10T10:32:52;2.20;;;0.97;;
18875;SDS011;9570;50.854;13.778;2022-07-10T10:38:11;3.67;;;1.40;;
18875;SDS011;9570;50.854;13.778;2022-07-10T10:40:37;3.57;;;1.20;;
18875;SDS011;9570;50.854;13.778;2022-07-10T10:43:22;3.83;;;1.20;;
18875;SDS011;9570;50.854;13.778;2022-07-10T10:45:48;3.60;;;1.20;;
18875;SDS011;9570;50.854;13.778;2022-07-10T10:48:15;2.47;;;1.10;;
18875;SDS011;9570;50.854;13.778;2022-07-10T10:53:15;4.33;;;1.40;;
18875;SDS011;9570;50.854;13.778;2022-07-10T10:55:53;3.97;;;1.27;;
18875;SDS011;9570;50.854;13.778;2022-07-10T10:58:27;3.13;;;1.00;;
18875;SDS011;9570;50.854;13.778;2022-07-10T11:01:03;3.67;;;1.20;;
18875;SDS011;9570;50.854;13.778;2022-07-10T11:03:30;4.30;;;1.37;;
18875;SDS011;9570;50.854;13.778;2022-07-10T11:05:56;4.33;;;1.20;;
18875;SDS011;9570;50.854;13.778;2022-07-10T11:08:37;3.30;;;1.03;;
18875;SDS011;9570;50.854;13.778;2022-07-10T11:13:58;3.90;;;1.00;;
18875;SDS011;9570;50.854;13.778;2022-07-10T11:16:24;4.20;;;1.30;;
18875;SDS011;9570;50.854;13.778;2022-07-10T11:18:53;4.97;;;1.30;;
18875;SDS011;9570;50.854;13.778;2022-07-10T11:21:23;3.57;;;1.30;;
18875;SDS011;9570;50.854;13.778;2022-07-10T11:26:49;3.17;;;1.00;;
18875;SDS011;9570;50.854;13.778;2022-07-10T11:29:23;3.67;;;1.33;;
18875;SDS011;9570;50.854;13.778;2022-07-10T11:31:52;3.87;;;1.27;;
18875;SDS011;9570;50.854;13.778;2022-07-10T11:34:19;3.67;;;1.50;;
18875;SDS011;9570;50.854;13.778;2022-07-10T11:36:44;2.93;;;1.30;;
18875;SDS011;9570;50.854;13.778;2022-07-10T11:39:12;4.43;;;1.17;;
18875;SDS011;9570;50.854;13.778;2022-07-10T11:41:42;4.97;;;1.10;;
18875;SDS011;9570;50.854;13.778;2022-07-10T11:44:16;3.13;;;1.30;;
18875;SDS011;9570;50.854;13.778;2022-07-10T11:46:43;3.70;;;1.00;;
18875;SDS011;9570;50.854;13.778;2022-07-10T11:49:10;3.67;;;1.30;;
18875;SDS011;9570;50.854;13.778;2022-07-10T11:51:37;1.47;;;1.13;;
18875;SDS011;9570;50.854;13.778;2022-07-10T11:54:05;6.47;;;1.43;;
18875;SDS011;9570;50.854;13.778;2022-07-10T11:56:37;2.90;;;1.23;;
18875;SDS011;9570;50.854;13.778;2022-07-10T11:59:06;4.00;;;1.43;;
18875;SDS011;9570;50.854;13.778;2022-07-10T12:01:40;2.97;;;1.23;;
18875;SDS011;9570;50.854;13.778;2022-07-10T12:04:07;3.33;;;1.30;;
18875;SDS011;9570;50.854;13.778;2022-07-10T12:06:35;3.33;;;1.20;;
18875;SDS011;9570;50.854;13.778;2022-07-10T12:09:06;2.33;;;1.10;;
18875;SDS011;9570;50.854;13.778;2022-07-10T12:11:33;5.93;;;1.37;;
18875;SDS011;9570;50.854;13.778;2022-07-10T12:14:19;2.27;;;1.23;;
18875;SDS011;9570;50.854;13.778;2022-07-10T12:16:47;3.97;;;1.30;;
18875;SDS011;9570;50.854;13.778;2022-07-10T12:19:15;4.27;;;1.27;;
18875;SDS011;9570;50.854;13.778;2022-07-10T12:21:42;6.57;;;1.40;;
18875;SDS011;9570;50.854;13.778;2022-07-10T12:24:09;4.77;;;1.50;;
18875;SDS011;9570;50.854;13.778;2022-07-10T12:26:37;2.03;;;1.20;;
18875;SDS011;9570;50.854;13.778;2022-07-10T12:29:04;3.57;;;1.47;;
18875;SDS011;9570;50.854;13.778;2022-07-10T12:31:31;3.43;;;1.00;;
18875;SDS011;9570;50.854;13.778;2022-07-10T12:34:02;3.83;;;1.20;;
18875;SDS011;9570;50.854;13.778;2022-07-10T12:36:41;5.80;;;1.60;;
18875;SDS011;9570;50.854;13.778;2022-07-10T12:39:12;2.23;;;1.30;;
18875;SDS011;9570;50.854;13.778;2022-07-10T12:47:07;4.93;;;1.37;;
18875;SDS011;9570;50.854;13.778;2022-07-10T12:49:47;5.73;;;1.30;;
18875;SDS011;9570;50.854;13.778;2022-07-10T12:52:24;3.47;;;1.40;;
18875;SDS011;9570;50.854;13.778;2022-07-10T12:55:04;5.87;;;1.40;;
18875;SDS011;9570;50.854;13.778;2022-07-10T12:57:44;6.97;;;1.57;;
18875;SDS011;9570;50.854;13.778;2022-07-10T13:00:17;4.47;;;1.10;;
18875;SDS011;9570;50.854;13.778;2022-07-10T13:02:58;5.73;;;1.50;;
18875;SDS011;9570;50.854;13.778;2022-07-10T13:05:32;4.77;;;1.47;;
18875;SDS011;9570;50.854;13.778;2022-07-10T13:10:41;4.67;;;1.73;;
18875;SDS011;9570;50.854;13.778;2022-07-10T13:13:14;5.87;;;1.57;;
18875;SDS011;9570;50.854;13.778;2022-07-10T13:15:39;6.50;;;1.30;;
18875;SDS011;9570;50.854;13.778;2022-07-10T13:18:15;3.20;;;1.30;;
18875;SDS011;9570;50.854;13.778;2022-07-10T13:20:42;3.47;;;1.50;;
18875;SDS011;9570;50.854;13.778;2022-07-10T13:23:08;6.60;;;1.53;;
18875;SDS011;9570;50.854;13.778;2022-07-10T13:25:34;4.13;;;1.50;;
18875;SDS011;9570;50.854;13.778;2022-07-10T13:28:01;3.47;;;1.30;;
18875;SDS011;9570;50.854;13.778;2022-07-10T13:30:27;4.33;;;1.23;;
18875;SDS011;9570;50.854;13.778;2022-07-10T13:32:52;5.60;;;1.50;;
18875;SDS011;9570;50.854;13.778;2022-07-10T13:35:18;5.23;;;1.23;;
18875;SDS011;9570;50.854;13.778;2022-07-10T13:37:44;5.03;;;1.77;;
18875;SDS011;9570;50.854;13.778;2022-07-10T13:40:11;5.17;;;1.63;;
18875;SDS011;9570;50.854;13.778;2022-07-10T13:42:37;4.93;;;1.30;;
18875;SDS011;9570;50.854;13.778;2022-07-10T13:45:02;3.93;;;1.50;;
18875;SDS011;9570;50.854;13.778;2022-07-10T13:47:28;4.67;;;1.70;;
18875;SDS011;9570;50.854;13.778;2022-07-10T13:49:53;4.57;;;1.53;;
18875;SDS011;9570;50.854;13.778;2022-07-10T13:52:19;4.50;;;1.53;;
18875;SDS011;9570;50.854;13.778;2022-07-10T13:54:45;3.00;;;1.20;;
18875;SDS011;9570;50.854;13.778;2022-07-10T13:57:10;4.43;;;1.60;;
18875;SDS011;9570;50.854;13.778;2022-07-10T13:59:36;9.20;;;1.67;;
18875;SDS011;9570;50.854;13.778;2022-07-10T14:02:01;3.47;;;1.43;;
18875;SDS011;9570;50.854;13.778;2022-07-10T14:04:27;6.60;;;1.60;;
18875;SDS011;9570;50.854;13.778;2022-07-10T14:06:52;6.03;;;1.53;;
18875;SDS011;9570;50.854;13.778;2022-07-10T14:09:19;6.67;;;1.70;;
18875;SDS011;9570;50.854;13.778;2022-07-10T14:11:47;4.00;;;1.40;;
18875;SDS011;9570;50.854;13.778;2022-07-10T14:14:13;5.70;;;1.70;;
18875;SDS011;9570;50.854;13.778;2022-07-10T14:16:38;4.50;;;1.20;;
18875;SDS011;9570;50.854;13.778;2022-07-10T14:19:04;5.33;;;1.60;;
18875;SDS011;9570;50.854;13.778;2022-07-10T14:21:29;5.80;;;1.70;;
18875;SDS011;9570;50.854;13.778;2022-07-10T14:23:55;3.87;;;1.40;;
18875;SDS011;9570;50.854;13.778;2022-07-10T14:26:23;6.50;;;1.73;;
18875;SDS011;9570;50.854;13.778;2022-07-10T14:28:49;4.80;;;1.50;;
18875;SDS011;9570;50.854;13.778;2022-07-10T14:31:16;6.63;;;1.30;;
18875;SDS011;9570;50.854;13.778;2022-07-10T14:33:41;5.57;;;1.60;;
18875;SDS011;9570;50.854;13.778;2022-07-10T14:36:07;3.80;;;1.27;;
18875;SDS011;9570;50.854;13.778;2022-07-10T14:38:32;4.20;;;1.27;;
18875;SDS011;9570;50.854;13.778;2022-07-10T14:40:58;7.47;;;1.67;;
18875;SDS011;9570;50.854;13.778;2022-07-10T14:43:24;5.77;;;1.37;;
18875;SDS011;9570;50.854;13.778;2022-07-10T14:45:49;4.60;;;1.77;;
18875;SDS011;9570;50.854;13.778;2022-07-10T14:48:15;5.03;;;1.50;;
18875;SDS011;9570;50.854;13.778;2022-07-10T14:50:40;5.93;;;1.60;;
18875;SDS011;9570;50.854;13.778;2022-07-10T14:53:06;5.93;;;1.70;;
18875;SDS011;9570;50.854;13.778;2022-07-10T14:55:33;5.43;;;1.30;;
18875;SDS011;9570;50.854;13.778;2022-07-10T14:57:59;5.07;;;1.40;;
18875;SDS011;9570;50.854;13.778;2022-07-10T15:00:24;3.90;;;1.40;;
18875;SDS011;9570;50.854;13.778;2022-07-10T15:02:50;3.67;;;1.20;;
18875;SDS011;9570;50.854;13.778;2022-07-10T15:05:15;4.77;;;1.60;;
18875;SDS011;9570;50.854;13.778;2022-07-10T15:07:40;4.73;;;1.53;;
18875;SDS011;9570;50.854;13.778;2022-07-10T15:10:06;3.63;;;1.40;;
18875;SDS011;9570;50.854;13.778;2022-07-10T15:12:33;3.60;;;1.53;;
18875;SDS011;9570;50.854;13.778;2022-07-10T15:15:01;3.53;;;1.47;;
18875;SDS011;9570;50.854;13.778;2022-07-10T15:17:28;6.47;;;1.50;;
18875;SDS011;9570;50.854;13.778;2022-07-10T15:19:53;3.10;;;1.23;;